AVA8440 SKRG-SKSP
Flight info
| Callsign | AVA8440 |
|---|---|
| Flight time | 1h 26m |
| Altitude | 34000 |
| Route | LLIXI2A OPMEL DCT VUNIB DCT TOSAV TOSAV2A |
| Aircraft | MD82/M-SDFGIRWY/S |
Departure
| Time | 2026-05-07 19:16 |
|---|---|
| Airport | Jose Maria Córdova International Airport (SKRG) |
Arrival
| Time | 2026-05-07 20:42 |
|---|---|
| Airport | Gustavo Rojas Pinilla International Airport (SKSP) |
| Time | Latitude | Longitude | Altitude | Speed | Heading |
|---|---|---|---|---|---|
| 2026-05-07 18:40 | 6.17026 | -75.42707 | 6987 ft | 0 kts | 307° |
| 2026-05-07 19:06 | 6.17025 | -75.42706 | 6987 ft | 2 kts | 308° |
| 2026-05-07 19:07 | 6.17008 | -75.42690 | 6987 ft | 4 kts | 338° |
| 2026-05-07 19:07 | 6.16987 | -75.42689 | 6985 ft | 4 kts | 26° |
| 2026-05-07 19:07 | 6.16974 | -75.42697 | 6984 ft | 0 kts | 38° |
| 2026-05-07 19:09 | 6.16986 | -75.42687 | 6984 ft | 6 kts | 39° |
| 2026-05-07 19:09 | 6.17018 | -75.42660 | 6987 ft | 7 kts | 39° |
| 2026-05-07 19:10 | 6.17071 | -75.42624 | 6988 ft | 11 kts | 27° |
| 2026-05-07 19:10 | 6.17153 | -75.42621 | 6990 ft | 13 kts | 354° |
| 2026-05-07 19:10 | 6.17251 | -75.42622 | 6990 ft | 14 kts | 1° |
| 2026-05-07 19:10 | 6.17343 | -75.42622 | 6989 ft | 12 kts | 2° |
| 2026-05-07 19:11 | 6.17410 | -75.42595 | 6993 ft | 9 kts | 33° |
| 2026-05-07 19:11 | 6.17464 | -75.42560 | 6992 ft | 9 kts | 33° |
| 2026-05-07 19:11 | 6.17516 | -75.42526 | 6988 ft | 9 kts | 33° |
| 2026-05-07 19:11 | 6.17565 | -75.42495 | 6997 ft | 8 kts | 25° |
| 2026-05-07 19:12 | 6.17638 | -75.42491 | 6996 ft | 15 kts | 359° |
| 2026-05-07 19:12 | 6.17773 | -75.42492 | 7000 ft | 23 kts | 360° |
| 2026-05-07 19:12 | 6.17947 | -75.42493 | 6999 ft | 23 kts | 360° |
| 2026-05-07 19:12 | 6.18013 | -75.42467 | 7003 ft | 5 kts | 66° |
| 2026-05-07 19:13 | 6.18017 | -75.42426 | 7005 ft | 7 kts | 85° |
| 2026-05-07 19:13 | 6.18018 | -75.42373 | 7004 ft | 9 kts | 90° |
| 2026-05-07 19:13 | 6.18014 | -75.42335 | 7004 ft | 2 kts | 115° |
| 2026-05-07 19:13 | 6.18001 | -75.42324 | 6995 ft | 1 kts | 165° |
| 2026-05-07 19:14 | 6.17999 | -75.42324 | 6996 ft | 0 kts | 180° |
| 2026-05-07 19:14 | 6.17994 | -75.42324 | 6997 ft | 4 kts | 180° |
| 2026-05-07 19:14 | 6.17873 | -75.42324 | 7001 ft | 35 kts | 179° |
| 2026-05-07 19:15 | 6.17452 | -75.42318 | 6994 ft | 89 kts | 179° |
| 2026-05-07 19:15 | 6.16695 | -75.42310 | 6980 ft | 124 kts | 180° |
| 2026-05-07 19:15 | 6.15750 | -75.42305 | 6964 ft | 147 kts | 180° |
| 2026-05-07 19:15 | 6.14656 | -75.42249 | 6956 ft | 166 kts | 175° |
| 2026-05-07 19:16 | 6.13460 | -75.42222 | 7070 ft | 177 kts | 179° |
| 2026-05-07 19:16 | 6.12238 | -75.42229 | 7525 ft | 174 kts | 178° |
| 2026-05-07 19:16 | 6.11428 | -75.42180 | 7841 ft | 176 kts | 168° |
| 2026-05-07 19:16 | 6.10240 | -75.41929 | 8374 ft | 175 kts | 161° |
| 2026-05-07 19:17 | 6.08755 | -75.41267 | 8953 ft | 181 kts | 152° |
| 2026-05-07 19:17 | 6.07597 | -75.40705 | 9391 ft | 186 kts | 149° |
| 2026-05-07 19:17 | 6.06621 | -75.39888 | 9924 ft | 186 kts | 122° |
| 2026-05-07 19:17 | 6.06003 | -75.38741 | 10447 ft | 188 kts | 112° |
| 2026-05-07 19:18 | 6.05716 | -75.37896 | 10771 ft | 190 kts | 103° |
| 2026-05-07 19:18 | 6.05461 | -75.36594 | 11225 ft | 191 kts | 96° |
| 2026-05-07 19:18 | 6.05465 | -75.35264 | 11675 ft | 194 kts | 84° |
| 2026-05-07 19:18 | 6.05730 | -75.33925 | 12133 ft | 197 kts | 71° |
| 2026-05-07 19:19 | 6.06270 | -75.32660 | 12641 ft | 198 kts | 62° |
| 2026-05-07 19:19 | 6.06977 | -75.31471 | 13138 ft | 198 kts | 59° |
| 2026-05-07 19:19 | 6.07763 | -75.30339 | 13584 ft | 198 kts | 52° |
| 2026-05-07 19:19 | 6.08682 | -75.29289 | 13980 ft | 201 kts | 49° |
| 2026-05-07 19:20 | 6.09643 | -75.28247 | 14358 ft | 205 kts | 48° |
| 2026-05-07 19:20 | 6.10654 | -75.27221 | 14716 ft | 208 kts | 39° |
| 2026-05-07 19:20 | 6.11973 | -75.26604 | 15099 ft | 213 kts | 13° |
| 2026-05-07 19:20 | 6.13454 | -75.26410 | 15490 ft | 216 kts | 8° |
| 2026-05-07 19:21 | 6.14952 | -75.26275 | 15871 ft | 218 kts | 8° |
| 2026-05-07 19:21 | 6.16463 | -75.26153 | 16249 ft | 219 kts | 6° |
| 2026-05-07 19:21 | 6.17988 | -75.26059 | 16604 ft | 222 kts | 7° |
| 2026-05-07 19:21 | 6.19558 | -75.25980 | 16860 ft | 229 kts | 6° |
| 2026-05-07 19:22 | 6.21171 | -75.25899 | 17101 ft | 235 kts | 6° |
| 2026-05-07 19:22 | 6.22827 | -75.25809 | 17359 ft | 241 kts | 5° |
| 2026-05-07 19:22 | 6.24527 | -75.25780 | 17603 ft | 250 kts | 352° |
| 2026-05-07 19:22 | 6.26188 | -75.26404 | 17860 ft | 263 kts | 329° |
| 2026-05-07 19:23 | 6.27596 | -75.27600 | 18156 ft | 274 kts | 310° |
| 2026-05-07 19:23 | 6.28742 | -75.29165 | 18450 ft | 283 kts | 305° |
| 2026-05-07 19:23 | 6.29857 | -75.30851 | 18609 ft | 296 kts | 305° |
| 2026-05-07 19:23 | 6.31036 | -75.32604 | 18773 ft | 309 kts | 306° |
| 2026-05-07 19:24 | 6.32296 | -75.34409 | 18924 ft | 321 kts | 307° |
| 2026-05-07 19:24 | 6.33607 | -75.36281 | 18897 ft | 332 kts | 305° |
| 2026-05-07 19:24 | 6.34909 | -75.38241 | 19123 ft | 342 kts | 304° |
| 2026-05-07 19:24 | 6.36237 | -75.40272 | 19353 ft | 351 kts | 304° |
| 2026-05-07 19:25 | 6.37608 | -75.42348 | 19559 ft | 360 kts | 305° |
| 2026-05-07 19:25 | 6.39022 | -75.44464 | 19768 ft | 370 kts | 306° |
| 2026-05-07 19:25 | 6.40493 | -75.46634 | 19979 ft | 380 kts | 306° |
| 2026-05-07 19:25 | 6.42014 | -75.48852 | 20208 ft | 389 kts | 306° |
| 2026-05-07 19:26 | 6.43572 | -75.51118 | 20414 ft | 398 kts | 306° |
| 2026-05-07 19:26 | 6.45160 | -75.53438 | 20652 ft | 407 kts | 306° |
| 2026-05-07 19:26 | 6.46767 | -75.55782 | 20898 ft | 414 kts | 306° |
| 2026-05-07 19:26 | 6.48418 | -75.58183 | 21181 ft | 421 kts | 306° |
| 2026-05-07 19:27 | 6.50092 | -75.60622 | 21457 ft | 429 kts | 306° |
| 2026-05-07 19:27 | 6.51794 | -75.63114 | 21731 ft | 435 kts | 306° |
| 2026-05-07 19:27 | 6.53512 | -75.65641 | 21975 ft | 440 kts | 306° |
| 2026-05-07 19:27 | 6.55243 | -75.68198 | 22196 ft | 444 kts | 306° |
| 2026-05-07 19:28 | 6.56998 | -75.70780 | 22439 ft | 447 kts | 306° |
| 2026-05-07 19:28 | 6.58766 | -75.73368 | 22712 ft | 451 kts | 306° |
| 2026-05-07 19:28 | 6.60552 | -75.75986 | 22988 ft | 455 kts | 306° |
| 2026-05-07 19:28 | 6.62343 | -75.78622 | 23272 ft | 458 kts | 306° |
| 2026-05-07 19:29 | 6.64145 | -75.81270 | 23533 ft | 460 kts | 306° |
| 2026-05-07 19:29 | 6.65950 | -75.83940 | 23785 ft | 463 kts | 306° |
| 2026-05-07 19:29 | 6.67766 | -75.86627 | 24026 ft | 466 kts | 306° |
| 2026-05-07 19:29 | 6.69597 | -75.89328 | 24259 ft | 468 kts | 306° |
| 2026-05-07 19:30 | 6.71419 | -75.92004 | 24509 ft | 470 kts | 306° |
| 2026-05-07 19:30 | 6.73281 | -75.94719 | 24752 ft | 472 kts | 308° |
| 2026-05-07 19:30 | 6.75467 | -75.97173 | 25018 ft | 471 kts | 318° |
| 2026-05-07 19:30 | 6.77877 | -75.99414 | 25264 ft | 472 kts | 320° |
| 2026-05-07 19:31 | 6.80333 | -76.01604 | 25518 ft | 473 kts | 320° |
| 2026-05-07 19:31 | 6.82800 | -76.03806 | 25776 ft | 474 kts | 320° |
| 2026-05-07 19:31 | 6.85257 | -76.06023 | 26031 ft | 475 kts | 319° |
| 2026-05-07 19:31 | 6.87710 | -76.08265 | 26286 ft | 476 kts | 319° |
| 2026-05-07 19:32 | 6.90152 | -76.10518 | 26540 ft | 477 kts | 319° |
| 2026-05-07 19:32 | 6.92596 | -76.12789 | 26793 ft | 477 kts | 319° |
| 2026-05-07 19:32 | 6.95027 | -76.15058 | 27060 ft | 477 kts | 318° |
| 2026-05-07 19:32 | 6.97467 | -76.17332 | 27331 ft | 477 kts | 318° |
| 2026-05-07 19:33 | 6.99883 | -76.19586 | 27587 ft | 476 kts | 319° |
| 2026-05-07 19:33 | 7.02314 | -76.21853 | 27844 ft | 475 kts | 319° |
| 2026-05-07 19:33 | 7.04737 | -76.24104 | 28107 ft | 474 kts | 318° |
| 2026-05-07 19:33 | 7.07160 | -76.26357 | 28388 ft | 472 kts | 318° |
| 2026-05-07 19:34 | 7.09574 | -76.28595 | 28657 ft | 471 kts | 318° |
| 2026-05-07 19:34 | 7.11980 | -76.30829 | 28924 ft | 469 kts | 317° |
| 2026-05-07 19:34 | 7.14349 | -76.33027 | 29162 ft | 469 kts | 317° |
| 2026-05-07 19:34 | 7.16740 | -76.35248 | 29399 ft | 467 kts | 317° |
| 2026-05-07 19:35 | 7.19127 | -76.37466 | 29607 ft | 466 kts | 317° |
| 2026-05-07 19:35 | 7.21504 | -76.39675 | 29855 ft | 464 kts | 317° |
| 2026-05-07 19:35 | 7.23867 | -76.41871 | 30078 ft | 462 kts | 317° |
| 2026-05-07 19:35 | 7.26222 | -76.44061 | 30278 ft | 461 kts | 317° |
| 2026-05-07 19:36 | 7.28581 | -76.46257 | 30489 ft | 460 kts | 317° |
| 2026-05-07 19:36 | 7.30933 | -76.48446 | 30687 ft | 460 kts | 317° |
| 2026-05-07 19:36 | 7.33286 | -76.50634 | 30878 ft | 459 kts | 317° |
| 2026-05-07 19:36 | 7.35636 | -76.52819 | 31085 ft | 459 kts | 317° |
| 2026-05-07 19:37 | 7.37980 | -76.54997 | 31297 ft | 458 kts | 317° |
| 2026-05-07 19:37 | 7.40311 | -76.57166 | 31496 ft | 456 kts | 317° |
| 2026-05-07 19:37 | 7.42641 | -76.59334 | 31711 ft | 454 kts | 317° |
| 2026-05-07 19:37 | 7.44935 | -76.61464 | 31928 ft | 454 kts | 317° |
| 2026-05-07 19:38 | 7.47257 | -76.63620 | 32149 ft | 453 kts | 317° |
| 2026-05-07 19:38 | 7.49568 | -76.65767 | 32351 ft | 452 kts | 317° |
| 2026-05-07 19:38 | 7.51876 | -76.67912 | 32563 ft | 451 kts | 317° |
| 2026-05-07 19:38 | 7.54178 | -76.70053 | 32790 ft | 450 kts | 317° |
| 2026-05-07 19:39 | 7.56478 | -76.72192 | 33007 ft | 449 kts | 317° |
| 2026-05-07 19:39 | 7.58774 | -76.74328 | 33231 ft | 448 kts | 317° |
| 2026-05-07 19:39 | 7.61062 | -76.76456 | 33430 ft | 448 kts | 317° |
| 2026-05-07 19:39 | 7.63350 | -76.78585 | 33581 ft | 447 kts | 317° |
| 2026-05-07 19:40 | 7.65634 | -76.80710 | 33716 ft | 447 kts | 317° |
| 2026-05-07 19:40 | 7.67917 | -76.82835 | 33794 ft | 447 kts | 317° |
| 2026-05-07 19:40 | 7.72485 | -76.87087 | 33839 ft | 446 kts | 317° |
| 2026-05-07 19:41 | 7.76997 | -76.91293 | 33855 ft | 445 kts | 317° |
| 2026-05-07 19:41 | 7.81548 | -76.95522 | 33859 ft | 445 kts | 317° |
| 2026-05-07 19:42 | 7.86102 | -76.99760 | 33865 ft | 445 kts | 317° |
| 2026-05-07 19:42 | 7.90656 | -77.04002 | 33866 ft | 445 kts | 317° |
| 2026-05-07 19:43 | 7.95209 | -77.08243 | 33866 ft | 445 kts | 317° |
| 2026-05-07 19:43 | 7.99728 | -77.12454 | 33877 ft | 445 kts | 317° |
| 2026-05-07 19:44 | 8.04288 | -77.16704 | 33875 ft | 445 kts | 317° |
| 2026-05-07 19:44 | 8.08837 | -77.20943 | 33873 ft | 445 kts | 317° |
| 2026-05-07 19:45 | 8.13393 | -77.25192 | 33882 ft | 446 kts | 317° |
| 2026-05-07 19:45 | 8.17952 | -77.29449 | 33883 ft | 446 kts | 318° |
| 2026-05-07 19:46 | 8.22517 | -77.33700 | 33884 ft | 446 kts | 317° |
| 2026-05-07 19:46 | 8.27049 | -77.37922 | 33884 ft | 447 kts | 317° |
| 2026-05-07 19:47 | 8.31609 | -77.42181 | 33882 ft | 446 kts | 318° |
| 2026-05-07 19:47 | 8.36170 | -77.46440 | 33879 ft | 445 kts | 318° |
| 2026-05-07 19:48 | 8.40723 | -77.50689 | 33881 ft | 446 kts | 317° |
| 2026-05-07 19:48 | 8.45296 | -77.54957 | 33881 ft | 447 kts | 318° |
| 2026-05-07 19:49 | 8.49861 | -77.59222 | 33875 ft | 446 kts | 318° |
| 2026-05-07 19:49 | 8.54422 | -77.63485 | 33876 ft | 448 kts | 318° |
| 2026-05-07 19:50 | 8.59011 | -77.67772 | 33869 ft | 449 kts | 318° |
| 2026-05-07 19:50 | 8.63564 | -77.72027 | 33869 ft | 449 kts | 318° |
| 2026-05-07 19:51 | 8.68153 | -77.76317 | 33865 ft | 448 kts | 318° |
| 2026-05-07 19:51 | 8.72728 | -77.80595 | 33866 ft | 448 kts | 318° |
| 2026-05-07 19:52 | 8.77308 | -77.84879 | 33868 ft | 449 kts | 318° |
| 2026-05-07 19:52 | 8.81886 | -77.89161 | 33869 ft | 449 kts | 318° |
| 2026-05-07 19:53 | 8.86475 | -77.93456 | 33867 ft | 448 kts | 318° |
| 2026-05-07 19:53 | 8.91026 | -77.97719 | 33869 ft | 450 kts | 318° |
| 2026-05-07 19:54 | 8.95634 | -78.02042 | 33875 ft | 453 kts | 318° |
| 2026-05-07 19:54 | 9.00260 | -78.06371 | 33875 ft | 453 kts | 318° |
| 2026-05-07 19:55 | 9.04880 | -78.10697 | 33878 ft | 452 kts | 318° |
| 2026-05-07 19:55 | 9.09491 | -78.15016 | 33878 ft | 452 kts | 318° |
| 2026-05-07 19:56 | 9.14105 | -78.19342 | 33877 ft | 452 kts | 318° |
| 2026-05-07 19:56 | 9.18719 | -78.23669 | 33877 ft | 452 kts | 318° |
| 2026-05-07 19:57 | 9.23329 | -78.27995 | 33884 ft | 452 kts | 318° |
| 2026-05-07 19:57 | 9.27939 | -78.32326 | 33885 ft | 452 kts | 319° |
| 2026-05-07 19:58 | 9.32564 | -78.36671 | 33886 ft | 455 kts | 319° |
| 2026-05-07 19:58 | 9.37207 | -78.41027 | 33885 ft | 455 kts | 319° |
| 2026-05-07 19:59 | 9.41815 | -78.45351 | 33886 ft | 454 kts | 319° |
| 2026-05-07 19:59 | 9.46452 | -78.49708 | 33883 ft | 454 kts | 319° |
| 2026-05-07 20:00 | 9.51080 | -78.54059 | 33882 ft | 454 kts | 319° |
| 2026-05-07 20:00 | 9.55709 | -78.58413 | 33884 ft | 454 kts | 319° |
| 2026-05-07 20:01 | 9.60315 | -78.62747 | 33882 ft | 454 kts | 319° |
| 2026-05-07 20:01 | 9.64975 | -78.67132 | 33877 ft | 454 kts | 319° |
| 2026-05-07 20:02 | 9.69591 | -78.71477 | 33877 ft | 457 kts | 319° |
| 2026-05-07 20:02 | 9.74254 | -78.75866 | 33877 ft | 457 kts | 319° |
| 2026-05-07 20:03 | 9.78909 | -78.80249 | 33878 ft | 457 kts | 319° |
| 2026-05-07 20:03 | 9.83563 | -78.84634 | 33878 ft | 457 kts | 319° |
| 2026-05-07 20:04 | 9.88194 | -78.89003 | 33878 ft | 456 kts | 319° |
| 2026-05-07 20:04 | 9.92783 | -78.93332 | 33879 ft | 456 kts | 319° |
| 2026-05-07 20:05 | 9.97439 | -78.97723 | 33879 ft | 457 kts | 319° |
| 2026-05-07 20:05 | 10.02095 | -79.02115 | 33878 ft | 457 kts | 319° |
| 2026-05-07 20:06 | 10.06767 | -79.06521 | 33876 ft | 459 kts | 319° |
| 2026-05-07 20:06 | 10.11415 | -79.10910 | 33879 ft | 459 kts | 318° |
| 2026-05-07 20:07 | 10.16096 | -79.15338 | 33880 ft | 459 kts | 318° |
| 2026-05-07 20:07 | 10.20761 | -79.19751 | 33881 ft | 458 kts | 318° |
| 2026-05-07 20:08 | 10.24644 | -79.23422 | 33881 ft | 458 kts | 318° |
| 2026-05-07 20:08 | 10.29313 | -79.27837 | 33881 ft | 458 kts | 318° |
| 2026-05-07 20:09 | 10.33987 | -79.32258 | 33886 ft | 459 kts | 318° |
| 2026-05-07 20:10 | 10.40987 | -79.38883 | 33884 ft | 458 kts | 318° |
| 2026-05-07 20:10 | 10.45659 | -79.43302 | 33880 ft | 458 kts | 318° |
| 2026-05-07 20:11 | 10.50298 | -79.47685 | 33884 ft | 460 kts | 318° |
| 2026-05-07 20:11 | 10.54806 | -79.52295 | 33888 ft | 461 kts | 311° |
| 2026-05-07 20:12 | 10.58833 | -79.57357 | 33885 ft | 461 kts | 310° |
| 2026-05-07 20:12 | 10.62848 | -79.62439 | 33885 ft | 461 kts | 310° |
| 2026-05-07 20:13 | 10.66929 | -79.67471 | 33884 ft | 460 kts | 311° |
| 2026-05-07 20:13 | 10.71028 | -79.72464 | 33889 ft | 460 kts | 311° |
| 2026-05-07 20:14 | 10.75106 | -79.77436 | 33892 ft | 461 kts | 311° |
| 2026-05-07 20:14 | 10.79206 | -79.82451 | 33886 ft | 461 kts | 310° |
| 2026-05-07 20:15 | 10.83304 | -79.87480 | 33888 ft | 462 kts | 310° |
| 2026-05-07 20:15 | 10.87354 | -79.92455 | 33889 ft | 461 kts | 311° |
| 2026-05-07 20:16 | 10.91454 | -79.97487 | 33889 ft | 461 kts | 311° |
| 2026-05-07 20:16 | 10.95553 | -80.02518 | 33890 ft | 461 kts | 311° |
| 2026-05-07 20:17 | 10.99625 | -80.07518 | 33892 ft | 461 kts | 311° |
| 2026-05-07 20:17 | 11.03724 | -80.12554 | 33892 ft | 461 kts | 311° |
| 2026-05-07 20:18 | 11.07819 | -80.17588 | 33887 ft | 461 kts | 311° |
| 2026-05-07 20:18 | 11.11919 | -80.22638 | 33889 ft | 463 kts | 311° |
| 2026-05-07 20:19 | 11.16024 | -80.27691 | 33891 ft | 462 kts | 310° |
| 2026-05-07 20:19 | 11.20124 | -80.32740 | 33894 ft | 462 kts | 310° |
| 2026-05-07 20:20 | 11.24207 | -80.37773 | 33895 ft | 462 kts | 310° |
| 2026-05-07 20:20 | 11.28299 | -80.42812 | 33894 ft | 462 kts | 310° |
| 2026-05-07 20:21 | 11.32395 | -80.47863 | 33896 ft | 463 kts | 310° |
| 2026-05-07 20:21 | 11.36412 | -80.52819 | 33895 ft | 463 kts | 311° |
| 2026-05-07 20:22 | 11.40513 | -80.57885 | 33898 ft | 464 kts | 310° |
| 2026-05-07 20:22 | 11.44620 | -80.62961 | 33896 ft | 464 kts | 310° |
| 2026-05-07 20:23 | 11.48732 | -80.68041 | 33898 ft | 464 kts | 310° |
| 2026-05-07 20:23 | 11.52846 | -80.73125 | 33898 ft | 464 kts | 310° |
| 2026-05-07 20:24 | 11.56972 | -80.78226 | 33424 ft | 471 kts | 311° |
| 2026-05-07 20:24 | 11.59015 | -80.80755 | 32901 ft | 465 kts | 311° |
| 2026-05-07 20:24 | 11.61082 | -80.83316 | 32311 ft | 459 kts | 311° |
| 2026-05-07 20:24 | 11.63103 | -80.85820 | 31682 ft | 455 kts | 311° |
| 2026-05-07 20:25 | 11.65108 | -80.88305 | 30997 ft | 453 kts | 311° |
| 2026-05-07 20:25 | 11.67109 | -80.90781 | 30306 ft | 451 kts | 312° |
| 2026-05-07 20:25 | 11.69068 | -80.93219 | 29581 ft | 450 kts | 310° |
| 2026-05-07 20:25 | 11.70910 | -80.95797 | 28867 ft | 448 kts | 307° |
| 2026-05-07 20:26 | 11.72619 | -80.98442 | 28197 ft | 445 kts | 305° |
| 2026-05-07 20:26 | 11.74281 | -81.01097 | 27557 ft | 442 kts | 305° |
| 2026-05-07 20:26 | 11.75931 | -81.03732 | 26915 ft | 438 kts | 305° |
| 2026-05-07 20:26 | 11.77580 | -81.06338 | 26295 ft | 435 kts | 306° |
| 2026-05-07 20:27 | 11.79233 | -81.08918 | 25677 ft | 432 kts | 306° |
| 2026-05-07 20:27 | 11.80886 | -81.11471 | 25058 ft | 430 kts | 306° |
| 2026-05-07 20:27 | 11.82541 | -81.14011 | 24452 ft | 427 kts | 306° |
| 2026-05-07 20:27 | 11.84164 | -81.16496 | 23878 ft | 425 kts | 306° |
| 2026-05-07 20:28 | 11.85804 | -81.19007 | 23233 ft | 424 kts | 306° |
| 2026-05-07 20:28 | 11.87432 | -81.21499 | 22561 ft | 421 kts | 306° |
| 2026-05-07 20:28 | 11.89051 | -81.23981 | 21925 ft | 418 kts | 306° |
| 2026-05-07 20:28 | 11.90654 | -81.26443 | 21316 ft | 415 kts | 306° |
| 2026-05-07 20:29 | 11.92245 | -81.28893 | 20711 ft | 412 kts | 306° |
| 2026-05-07 20:29 | 11.93826 | -81.31329 | 20121 ft | 410 kts | 306° |
| 2026-05-07 20:29 | 11.95392 | -81.33751 | 19544 ft | 408 kts | 305° |
| 2026-05-07 20:29 | 11.96944 | -81.36152 | 18964 ft | 397 kts | 305° |
| 2026-05-07 20:30 | 11.98424 | -81.38446 | 18405 ft | 376 kts | 305° |
| 2026-05-07 20:30 | 11.99836 | -81.40632 | 17825 ft | 366 kts | 305° |
| 2026-05-07 20:30 | 12.01240 | -81.42799 | 17254 ft | 366 kts | 305° |
| 2026-05-07 20:30 | 12.02647 | -81.44966 | 16722 ft | 365 kts | 305° |
| 2026-05-07 20:31 | 12.04052 | -81.47128 | 16195 ft | 365 kts | 305° |
| 2026-05-07 20:31 | 12.05452 | -81.49286 | 15675 ft | 364 kts | 305° |
| 2026-05-07 20:31 | 12.06851 | -81.51442 | 15166 ft | 363 kts | 305° |
| 2026-05-07 20:31 | 12.08244 | -81.53590 | 14657 ft | 363 kts | 304° |
| 2026-05-07 20:32 | 12.09646 | -81.55737 | 14129 ft | 362 kts | 307° |
| 2026-05-07 20:32 | 12.11348 | -81.57612 | 13581 ft | 359 kts | 321° |
| 2026-05-07 20:32 | 12.13268 | -81.59190 | 12998 ft | 358 kts | 324° |
| 2026-05-07 20:32 | 12.15257 | -81.60734 | 12426 ft | 358 kts | 324° |
| 2026-05-07 20:33 | 12.17234 | -81.62282 | 11849 ft | 358 kts | 324° |
| 2026-05-07 20:33 | 12.19194 | -81.63847 | 11317 ft | 357 kts | 323° |
| 2026-05-07 20:33 | 12.21134 | -81.65421 | 10854 ft | 354 kts | 323° |
| 2026-05-07 20:33 | 12.23035 | -81.66988 | 10524 ft | 346 kts | 322° |
| 2026-05-07 20:34 | 12.24843 | -81.68490 | 10334 ft | 320 kts | 322° |
| 2026-05-07 20:34 | 12.26503 | -81.69874 | 10151 ft | 298 kts | 322° |
| 2026-05-07 20:34 | 12.28085 | -81.71184 | 9834 ft | 293 kts | 322° |
| 2026-05-07 20:34 | 12.29720 | -81.72539 | 9051 ft | 310 kts | 323° |
| 2026-05-07 20:35 | 12.31426 | -81.73941 | 8380 ft | 315 kts | 323° |
| 2026-05-07 20:35 | 12.33107 | -81.75330 | 7784 ft | 307 kts | 322° |
| 2026-05-07 20:35 | 12.34742 | -81.76681 | 7249 ft | 298 kts | 323° |
| 2026-05-07 20:35 | 12.36307 | -81.77982 | 6753 ft | 290 kts | 322° |
| 2026-05-07 20:36 | 12.37854 | -81.79259 | 6285 ft | 282 kts | 324° |
| 2026-05-07 20:36 | 12.39363 | -81.80508 | 5797 ft | 275 kts | 324° |
| 2026-05-07 20:36 | 12.40839 | -81.81702 | 5367 ft | 265 kts | 328° |
| 2026-05-07 20:36 | 12.42346 | -81.82700 | 5021 ft | 252 kts | 333° |
| 2026-05-07 20:37 | 12.43837 | -81.83572 | 4693 ft | 242 kts | 335° |
| 2026-05-07 20:37 | 12.45286 | -81.84400 | 4369 ft | 236 kts | 335° |
| 2026-05-07 20:37 | 12.46705 | -81.85204 | 4105 ft | 232 kts | 336° |
| 2026-05-07 20:37 | 12.48210 | -81.85618 | 3858 ft | 220 kts | 8° |
| 2026-05-07 20:38 | 12.49570 | -81.85085 | 3670 ft | 209 kts | 43° |
| 2026-05-07 20:38 | 12.50587 | -81.84014 | 3223 ft | 209 kts | 51° |
| 2026-05-07 20:38 | 12.51473 | -81.82873 | 2770 ft | 204 kts | 55° |
| 2026-05-07 20:38 | 12.52276 | -81.81693 | 2311 ft | 201 kts | 57° |
| 2026-05-07 20:39 | 12.53003 | -81.80494 | 1956 ft | 195 kts | 60° |
| 2026-05-07 20:39 | 12.53675 | -81.79351 | 1821 ft | 177 kts | 60° |
| 2026-05-07 20:39 | 12.54266 | -81.78306 | 1654 ft | 162 kts | 62° |
| 2026-05-07 20:39 | 12.54796 | -81.77396 | 1582 ft | 138 kts | 60° |
| 2026-05-07 20:40 | 12.55267 | -81.76560 | 1380 ft | 131 kts | 60° |
| 2026-05-07 20:40 | 12.55694 | -81.75778 | 1176 ft | 126 kts | 62° |
| 2026-05-07 20:40 | 12.56113 | -81.75013 | 986 ft | 122 kts | 61° |
| 2026-05-07 20:40 | 12.56524 | -81.74280 | 811 ft | 115 kts | 60° |
| 2026-05-07 20:41 | 12.56942 | -81.73597 | 666 ft | 110 kts | 58° |
| 2026-05-07 20:41 | 12.57346 | -81.72916 | 427 ft | 116 kts | 60° |
| 2026-05-07 20:41 | 12.57752 | -81.72188 | 176 ft | 123 kts | 59° |
| 2026-05-07 20:41 | 12.58175 | -81.71442 | 24 ft | 112 kts | 58° |
| 2026-05-07 20:42 | 12.58485 | -81.70905 | 24 ft | 63 kts | 60° |
| 2026-05-07 20:42 | 12.58680 | -81.70567 | 19 ft | 53 kts | 59° |
| 2026-05-07 20:42 | 12.58741 | -81.70429 | 16 ft | 11 kts | 92° |
| 2026-05-07 20:42 | 12.58711 | -81.70361 | 15 ft | 11 kts | 120° |
| 2026-05-07 20:43 | 12.58654 | -81.70312 | 14 ft | 4 kts | 148° |
| 2026-05-07 20:59 | 12.50291 | -81.84363 | 14 ft | 16 kts | 50° |
| 2026-05-07 20:59 | 12.51242 | -81.83182 | 2893 ft | 205 kts | 54° |
| 2026-05-07 20:59 | 12.51950 | -81.82195 | 2506 ft | 202 kts | 57° |
| 2026-05-07 20:59 | 12.58144 | -81.71497 | 25 ft | 97 kts | 60° |
| 2026-05-07 21:00 | 12.55408 | -81.76301 | 1341 ft | 122 kts | 61° |
| 2026-05-07 21:01 | 12.55712 | -81.75746 | 1173 ft | 126 kts | 62° |
| 2026-05-07 21:01 | 12.56130 | -81.74983 | 989 ft | 122 kts | 61° |